sensor_id;sensor_type;location;lat;lon;timestamp;pressure;altitude;pressure_sealevel;temperature;humidity
11519;BME280;5816;48.228;14.116;2023-02-13T05:29:10;100085.78;;;1.35;100.00
11519;BME280;5816;48.228;14.116;2023-02-13T05:34:22;100096.63;;;1.17;100.00
11519;BME280;5816;48.228;14.116;2023-02-13T05:39:24;100091.25;;;1.23;100.00
11519;BME280;5816;48.228;14.116;2023-02-13T05:44:25;100093.88;;;1.25;100.00
11519;BME280;5816;48.228;14.116;2023-02-13T05:49:27;100066.47;;;1.33;100.00
11519;BME280;5816;48.228;14.116;2023-02-13T05:54:29;100089.63;;;1.16;100.00
11519;BME280;5816;48.228;14.116;2023-02-13T05:59:30;100067.91;;;0.99;100.00
11519;BME280;5816;48.228;14.116;2023-02-13T06:04:32;100091.84;;;0.87;100.00
11519;BME280;5816;48.228;14.116;2023-02-13T06:09:34;100095.09;;;1.04;100.00
11519;BME280;5816;48.228;14.116;2023-02-13T06:14:35;100105.41;;;1.19;100.00
11519;BME280;5816;48.228;14.116;2023-02-13T06:19:37;100105.88;;;0.89;100.00
11519;BME280;5816;48.228;14.116;2023-02-13T06:24:39;100102.81;;;1.16;100.00
11519;BME280;5816;48.228;14.116;2023-02-13T06:29:40;100112.53;;;1.14;100.00
11519;BME280;5816;48.228;14.116;2023-02-13T06:34:42;100115.97;;;1.19;100.00
11519;BME280;5816;48.228;14.116;2023-02-13T06:39:43;100125.94;;;1.00;100.00
11519;BME280;5816;48.228;14.116;2023-02-13T06:44:45;100111.88;;;1.00;100.00
11519;BME280;5816;48.228;14.116;2023-02-13T06:49:47;100128.16;;;1.28;100.00
11519;BME280;5816;48.228;14.116;2023-02-13T06:54:49;100130.38;;;0.97;100.00
11519;BME280;5816;48.228;14.116;2023-02-13T06:59:50;100133.38;;;1.32;100.00
11519;BME280;5816;48.228;14.116;2023-02-13T07:04:52;100152.94;;;1.19;100.00
11519;BME280;5816;48.228;14.116;2023-02-13T07:09:54;100150.94;;;1.33;100.00
11519;BME280;5816;48.228;14.116;2023-02-13T07:14:55;100163.34;;;1.28;100.00
11519;BME280;5816;48.228;14.116;2023-02-13T07:19:57;100151.78;;;0.75;100.00
11519;BME280;5816;48.228;14.116;2023-02-13T07:25:02;100141.75;;;1.02;100.00
11519;BME280;5816;48.228;14.116;2023-02-13T07:30:04;100159.00;;;1.26;100.00
11519;BME280;5816;48.228;14.116;2023-02-13T07:35:07;100159.47;;;0.94;100.00
11519;BME280;5816;48.228;14.116;2023-02-13T07:40:09;100152.16;;;1.11;100.00
11519;BME280;5816;48.228;14.116;2023-02-13T07:45:11;100150.34;;;1.15;100.00
11519;BME280;5816;48.228;14.116;2023-02-13T07:50:12;100165.13;;;1.26;100.00
11519;BME280;5816;48.228;14.116;2023-02-13T07:55:14;100167.53;;;0.81;100.00
11519;BME280;5816;48.228;14.116;2023-02-13T08:00:17;100157.34;;;1.19;100.00
11519;BME280;5816;48.228;14.116;2023-02-13T08:05:18;100150.88;;;1.36;100.00
11519;BME280;5816;48.228;14.116;2023-02-13T08:10:20;100166.69;;;1.40;100.00
11519;BME280;5816;48.228;14.116;2023-02-13T08:15:41;100159.88;;;1.23;100.00
11519;BME280;5816;48.228;14.116;2023-02-13T08:20:45;100161.47;;;1.35;100.00
11519;BME280;5816;48.228;14.116;2023-02-13T08:25:46;100166.47;;;1.52;100.00
11519;BME280;5816;48.228;14.116;2023-02-13T08:30:50;100169.91;;;1.57;100.00
11519;BME280;5816;48.228;14.116;2023-02-13T08:35:52;100172.41;;;1.64;100.00
11519;BME280;5816;48.228;14.116;2023-02-13T08:40:56;100178.84;;;1.50;100.00
11519;BME280;5816;48.228;14.116;2023-02-13T08:45:59;100171.72;;;1.55;100.00
11519;BME280;5816;48.228;14.116;2023-02-13T08:51:06;100183.81;;;1.68;100.00
11519;BME280;5816;48.228;14.116;2023-02-13T08:56:09;100181.94;;;1.73;100.00
11519;BME280;5816;48.228;14.116;2023-02-13T09:01:12;100173.44;;;1.56;100.00
11519;BME280;5816;48.228;14.116;2023-02-13T09:06:13;100182.47;;;1.93;100.00
11519;BME280;5816;48.228;14.116;2023-02-13T09:11:15;100187.25;;;2.21;100.00
11519;BME280;5816;48.228;14.116;2023-02-13T09:16:17;100188.72;;;2.37;100.00
11519;BME280;5816;48.228;14.116;2023-02-13T09:21:20;100180.94;;;2.28;100.00
11519;BME280;5816;48.228;14.116;2023-02-13T09:26:24;100182.56;;;2.35;100.00
11519;BME280;5816;48.228;14.116;2023-02-13T09:31:25;100197.53;;;2.36;100.00
11519;BME280;5816;48.228;14.116;2023-02-13T09:36:30;100185.97;;;2.43;100.00
11519;BME280;5816;48.228;14.116;2023-02-13T09:41:35;100192.00;;;2.48;100.00
11519;BME280;5816;48.228;14.116;2023-02-13T09:46:39;100205.88;;;2.15;100.00
11519;BME280;5816;48.228;14.116;2023-02-13T09:51:43;100193.25;;;2.29;100.00
11519;BME280;5816;48.228;14.116;2023-02-13T10:02:29;100201.41;;;2.65;100.00
11519;BME280;5816;48.228;14.116;2023-02-13T10:07:48;100206.03;;;2.95;100.00
11519;BME280;5816;48.228;14.116;2023-02-13T10:13:28;100204.28;;;2.94;100.00
11519;BME280;5816;48.228;14.116;2023-02-13T10:19:15;100208.59;;;2.98;100.00
11519;BME280;5816;48.228;14.116;2023-02-13T10:24:30;100203.72;;;3.19;100.00
11519;BME280;5816;48.228;14.116;2023-02-13T10:35:23;100193.50;;;3.03;100.00
11519;BME280;5816;48.228;14.116;2023-02-13T10:40:36;100187.56;;;3.31;100.00
11519;BME280;5816;48.228;14.116;2023-02-13T11:01:53;100173.63;;;3.94;100.00
11519;BME280;5816;48.228;14.116;2023-02-13T11:07:03;100178.03;;;3.60;100.00
11519;BME280;5816;48.228;14.116;2023-02-13T11:12:24;100168.56;;;3.85;100.00
11519;BME280;5816;48.228;14.116;2023-02-13T11:17:29;100148.69;;;3.67;100.00
11519;BME280;5816;48.228;14.116;2023-02-13T11:22:35;100148.63;;;4.35;100.00
11519;BME280;5816;48.228;14.116;2023-02-13T11:27:38;100143.63;;;4.25;100.00
11519;BME280;5816;48.228;14.116;2023-02-13T11:32:40;100133.69;;;4.00;100.00
11519;BME280;5816;48.228;14.116;2023-02-13T11:37:42;100147.75;;;4.35;100.00
11519;BME280;5816;48.228;14.116;2023-02-13T11:42:46;100142.44;;;4.35;100.00
11519;BME280;5816;48.228;14.116;2023-02-13T11:47:53;100149.78;;;4.86;100.00
11519;BME280;5816;48.228;14.116;2023-02-13T11:53:18;100135.63;;;4.87;100.00
11519;BME280;5816;48.228;14.116;2023-02-13T11:58:25;100151.41;;;4.91;100.00
11519;BME280;5816;48.228;14.116;2023-02-13T12:03:30;100153.00;;;4.97;100.00
11519;BME280;5816;48.228;14.116;2023-02-13T12:08:35;100149.03;;;5.10;100.00
11519;BME280;5816;48.228;14.116;2023-02-13T12:13:38;100146.00;;;5.22;100.00
11519;BME280;5816;48.228;14.116;2023-02-13T12:18:43;100131.56;;;5.03;100.00
11519;BME280;5816;48.228;14.116;2023-02-13T12:24:00;100127.25;;;4.99;100.00
11519;BME280;5816;48.228;14.116;2023-02-13T12:34:31;100139.88;;;5.47;100.00
11519;BME280;5816;48.228;14.116;2023-02-13T12:39:49;100128.66;;;5.39;100.00
11519;BME280;5816;48.228;14.116;2023-02-13T12:50:23;100114.81;;;5.29;100.00
11519;BME280;5816;48.228;14.116;2023-02-13T13:01:17;100114.94;;;5.77;100.00
11519;BME280;5816;48.228;14.116;2023-02-13T13:11:45;100113.81;;;5.85;100.00
11519;BME280;5816;48.228;14.116;2023-02-13T13:22:26;100127.94;;;5.60;100.00
11519;BME280;5816;48.228;14.116;2023-02-13T13:27:46;100122.47;;;5.90;100.00
11519;BME280;5816;48.228;14.116;2023-02-13T13:32:54;100119.41;;;6.02;100.00
11519;BME280;5816;48.228;14.116;2023-02-13T13:38:09;100112.25;;;6.04;100.00
11519;BME280;5816;48.228;14.116;2023-02-13T13:49:33;100116.16;;;5.67;100.00
11519;BME280;5816;48.228;14.116;2023-02-13T13:54:36;100113.31;;;5.73;100.00
11519;BME280;5816;48.228;14.116;2023-02-13T14:10:00;100093.63;;;6.04;100.00
11519;BME280;5816;48.228;14.116;2023-02-13T14:15:02;100091.09;;;6.01;100.00
11519;BME280;5816;48.228;14.116;2023-02-13T14:20:25;100082.88;;;6.07;100.00
11519;BME280;5816;48.228;14.116;2023-02-13T14:25:32;100089.81;;;6.11;100.00
11519;BME280;5816;48.228;14.116;2023-02-13T14:30:35;100076.50;;;6.11;100.00
11519;BME280;5816;48.228;14.116;2023-02-13T14:35:38;100073.69;;;6.16;100.00
11519;BME280;5816;48.228;14.116;2023-02-13T14:40:46;100067.00;;;6.06;100.00
11519;BME280;5816;48.228;14.116;2023-02-13T14:50:56;100051.66;;;6.12;100.00
11519;BME280;5816;48.228;14.116;2023-02-13T14:56:12;100041.22;;;6.53;100.00
11519;BME280;5816;48.228;14.116;2023-02-13T15:01:26;100045.19;;;6.43;100.00
11519;BME280;5816;48.228;14.116;2023-02-13T15:06:33;100027.75;;;6.11;100.00
11519;BME280;5816;48.228;14.116;2023-02-13T15:11:42;100037.38;;;5.90;100.00
11519;BME280;5816;48.228;14.116;2023-02-13T15:16:47;100031.88;;;5.69;100.00
11519;BME280;5816;48.228;14.116;2023-02-13T15:21:58;100042.16;;;5.80;100.00
11519;BME280;5816;48.228;14.116;2023-02-13T15:27:04;100026.56;;;5.69;100.00
11519;BME280;5816;48.228;14.116;2023-02-13T15:32:17;100037.88;;;5.51;100.00
11519;BME280;5816;48.228;14.116;2023-02-13T15:37:22;100022.34;;;5.39;100.00
11519;BME280;5816;48.228;14.116;2023-02-13T15:42:24;100027.13;;;5.29;100.00
11519;BME280;5816;48.228;14.116;2023-02-13T15:47:29;100039.63;;;5.26;100.00
11519;BME280;5816;48.228;14.116;2023-02-13T15:52:35;100045.53;;;5.34;100.00
11519;BME280;5816;48.228;14.116;2023-02-13T15:57:38;100045.53;;;4.81;100.00
11519;BME280;5816;48.228;14.116;2023-02-13T16:02:43;100047.84;;;4.63;100.00
11519;BME280;5816;48.228;14.116;2023-02-13T16:07:56;100051.25;;;4.39;100.00
11519;BME280;5816;48.228;14.116;2023-02-13T16:13:00;100044.28;;;4.05;100.00
11519;BME280;5816;48.228;14.116;2023-02-13T16:18:04;100009.50;;;3.85;100.00
11519;BME280;5816;48.228;14.116;2023-02-13T16:23:17;100037.41;;;3.98;100.00
11519;BME280;5816;48.228;14.116;2023-02-13T16:28:24;100037.47;;;3.95;100.00
11519;BME280;5816;48.228;14.116;2023-02-13T16:33:34;100035.53;;;3.38;100.00
11519;BME280;5816;48.228;14.116;2023-02-13T16:38:40;100054.53;;;3.54;100.00
11519;BME280;5816;48.228;14.116;2023-02-13T16:43:47;100058.53;;;3.36;100.00
11519;BME280;5816;48.228;14.116;2023-02-13T16:53:59;100068.13;;;3.06;100.00
11519;BME280;5816;48.228;14.116;2023-02-13T16:59:20;100062.47;;;2.84;100.00
11519;BME280;5816;48.228;14.116;2023-02-13T17:04:23;100057.50;;;1.88;100.00
11519;BME280;5816;48.228;14.116;2023-02-13T17:09:25;100069.84;;;1.88;100.00
11519;BME280;5816;48.228;14.116;2023-02-13T17:14:27;100064.59;;;2.28;100.00
11519;BME280;5816;48.228;14.116;2023-02-13T17:19:29;100091.91;;;1.85;100.00
11519;BME280;5816;48.228;14.116;2023-02-13T17:24:30;100082.72;;;2.05;100.00
11519;BME280;5816;48.228;14.116;2023-02-13T17:29:32;100083.72;;;1.99;100.00
11519;BME280;5816;48.228;14.116;2023-02-13T17:34:34;100107.16;;;1.71;100.00
11519;BME280;5816;48.228;14.116;2023-02-13T17:39:36;100102.97;;;1.58;100.00
11519;BME280;5816;48.228;14.116;2023-02-13T17:44:37;100097.69;;;1.58;100.00
11519;BME280;5816;48.228;14.116;2023-02-13T17:49:40;100091.41;;;1.14;100.00
11519;BME280;5816;48.228;14.116;2023-02-13T17:54:42;100084.91;;;1.35;100.00
11519;BME280;5816;48.228;14.116;2023-02-13T17:59:45;100083.31;;;1.26;100.00
11519;BME280;5816;48.228;14.116;2023-02-13T18:04:47;100085.19;;;1.20;100.00
11519;BME280;5816;48.228;14.116;2023-02-13T18:09:50;100088.72;;;1.19;100.00
11519;BME280;5816;48.228;14.116;2023-02-13T18:14:52;100101.78;;;1.26;100.00
11519;BME280;5816;48.228;14.116;2023-02-13T18:19:56;100084.66;;;0.98;100.00
11519;BME280;5816;48.228;14.116;2023-02-13T18:25:02;100082.75;;;1.06;100.00
11519;BME280;5816;48.228;14.116;2023-02-13T18:30:05;100090.75;;;1.01;100.00
11519;BME280;5816;48.228;14.116;2023-02-13T18:35:07;100078.22;;;0.57;100.00
11519;BME280;5816;48.228;14.116;2023-02-13T18:40:10;100071.06;;;0.65;100.00
11519;BME280;5816;48.228;14.116;2023-02-13T18:45:12;100081.34;;;0.84;100.00
11519;BME280;5816;48.228;14.116;2023-02-13T18:50:13;100081.84;;;0.50;100.00
11519;BME280;5816;48.228;14.116;2023-02-13T18:55:15;100085.50;;;0.38;100.00
11519;BME280;5816;48.228;14.116;2023-02-13T19:00:17;100073.84;;;0.56;100.00
11519;BME280;5816;48.228;14.116;2023-02-13T19:05:20;100073.03;;;0.51;100.00
11519;BME280;5816;48.228;14.116;2023-02-13T19:10:23;100083.88;;;0.30;100.00
11519;BME280;5816;48.228;14.116;2023-02-13T19:15:24;100098.56;;;0.49;100.00
11519;BME280;5816;48.228;14.116;2023-02-13T19:20:26;100096.03;;;0.40;100.00
11519;BME280;5816;48.228;14.116;2023-02-13T19:25:28;100095.81;;;0.55;100.00
11519;BME280;5816;48.228;14.116;2023-02-13T19:30:30;100083.72;;;0.42;100.00
11519;BME280;5816;48.228;14.116;2023-02-13T19:35:32;100081.44;;;0.13;100.00
11519;BME280;5816;48.228;14.116;2023-02-13T19:40:33;100082.03;;;0.35;100.00
11519;BME280;5816;48.228;14.116;2023-02-13T19:45:35;100074.31;;;0.21;100.00
11519;BME280;5816;48.228;14.116;2023-02-13T19:50:37;100062.81;;;0.26;100.00
11519;BME280;5816;48.228;14.116;2023-02-13T19:55:39;100069.66;;;0.40;100.00
11519;BME280;5816;48.228;14.116;2023-02-13T20:00:41;100041.88;;;0.16;100.00
11519;BME280;5816;48.228;14.116;2023-02-13T20:05:42;100052.78;;;-0.13;100.00
11519;BME280;5816;48.228;14.116;2023-02-13T20:10:44;100051.91;;;-0.12;100.00
11519;BME280;5816;48.228;14.116;2023-02-13T20:15:46;100046.66;;;-0.15;100.00
11519;BME280;5816;48.228;14.116;2023-02-13T20:20:48;100037.00;;;-0.13;100.00
11519;BME280;5816;48.228;14.116;2023-02-13T20:25:50;100042.28;;;-0.16;100.00
11519;BME280;5816;48.228;14.116;2023-02-13T20:30:51;100038.72;;;-0.12;100.00
11519;BME280;5816;48.228;14.116;2023-02-13T20:35:54;100031.66;;;-0.10;100.00
11519;BME280;5816;48.228;14.116;2023-02-13T20:40:56;100029.81;;;-0.02;100.00
11519;BME280;5816;48.228;14.116;2023-02-13T20:45:58;100040.81;;;-0.42;100.00
11519;BME280;5816;48.228;14.116;2023-02-13T20:51:01;100046.97;;;-0.44;100.00
11519;BME280;5816;48.228;14.116;2023-02-13T20:56:05;100047.72;;;-0.32;100.00
11519;BME280;5816;48.228;14.116;2023-02-13T21:06:33;100043.72;;;0.09;100.00
11519;BME280;5816;48.228;14.116;2023-02-13T21:11:36;100037.84;;;-0.11;100.00
